Terminal Aerodrome Forecast
Issued by NWS

Home | Current Version | Previous Version | Text Only | Print | Product List | Glossary On
Versions: 1 2 3 4 5 6 7 8 9 10 11 12 13 14 15 16 17 18 19 20 21 22 23 24 25
000
FTUS43 KDTX 231311 AAA
TAFYIP
TAF AMD
KYIP 231311Z 2313/2412 VRB03KT P6SM SCT015 BKN250
      TEMPO 2313/2315 BKN015
     FM231500 25005KT P6SM BKN023
     FM231700 25007KT P6SM BKN040
      TEMPO 2319/2322 4SM -TSRA SCT028CB BKN040
     FM232200 29010KT P6SM BKN050
     FM240300 29006KT P6SM BKN080=

USA.gov is the U.S. government's official web portal to all federal, state and local government web resources and services.